createdAt,value
2022-09-05T00:02:03.405Z,13.11
2022-09-05T00:05:16.928Z,13.16
2022-09-05T00:08:53.771Z,13.12
2022-09-05T00:11:58.210Z,13.17
2022-09-05T00:15:19.125Z,13.25
2022-09-05T00:23:19.917Z,13.29
2022-09-05T00:24:29.593Z,13.28
2022-09-05T00:26:20.150Z,13.27
2022-09-05T00:29:28.902Z,13.23
2022-09-05T00:33:16.967Z,13.28
2022-09-05T00:36:43.087Z,13.25
2022-09-05T00:39:48.580Z,13.14
2022-09-05T00:43:11.805Z,13.10
2022-09-05T00:46:28.586Z,13.08
2022-09-05T00:49:39.054Z,13.02
2022-09-05T00:53:06.311Z,12.93
2022-09-05T00:56:30.585Z,12.91
2022-09-05T01:00:03.745Z,12.94
2022-09-05T01:03:28.055Z,12.92
2022-09-05T01:06:37.626Z,12.85
2022-09-05T01:09:43.773Z,12.89
2022-09-05T01:12:55.418Z,12.82
2022-09-05T01:16:21.273Z,12.81
2022-09-05T01:19:31.124Z,12.88
2022-09-05T01:22:39.166Z,12.83
2022-09-05T01:26:05.462Z,12.76
2022-09-05T01:29:21.676Z,12.71
2022-09-05T01:32:53.085Z,12.72
2022-09-05T01:36:40.127Z,12.75
2022-09-05T01:40:11.721Z,12.74
2022-09-05T01:43:35.139Z,12.76
2022-09-05T01:46:38.777Z,12.68
2022-09-05T01:49:56.462Z,12.72
2022-09-05T01:53:09.116Z,12.74
2022-09-05T01:56:27.699Z,12.76
2022-09-05T01:59:45.875Z,12.75
2022-09-05T02:03:01.751Z,12.73
2022-09-05T02:06:34.833Z,12.75
2022-09-05T02:10:07.774Z,12.70
2022-09-05T02:13:19.043Z,12.71
2022-09-05T02:16:40.544Z,12.73
2022-09-05T02:19:49.864Z,12.74
2022-09-05T02:23:41.089Z,12.72
2022-09-05T02:26:51.437Z,12.75
2022-09-05T02:30:25.286Z,12.75
2022-09-05T02:33:32.979Z,12.76
2022-09-05T02:36:43.632Z,12.81
2022-09-05T02:45:01.853Z,12.82
2022-09-05T02:45:11.901Z,12.87
2022-09-05T02:47:37.972Z,12.83
2022-09-05T02:57:23.938Z,12.82
2022-09-05T02:57:34.735Z,12.79
2022-09-05T02:58:07.047Z,12.78
2022-09-05T03:01:44.373Z,12.79
2022-09-05T03:04:52.274Z,12.78
2022-09-05T03:08:07.478Z,12.71
2022-09-05T03:11:14.983Z,12.71
2022-09-05T03:14:44.828Z,12.71
2022-09-05T03:18:24.348Z,12.71
2022-09-05T03:21:41.558Z,12.63
2022-09-05T03:25:18.127Z,12.67
2022-09-05T03:28:19.546Z,12.68
2022-09-05T03:31:56.871Z,12.70
2022-09-05T03:35:40.547Z,12.73
2022-09-05T03:39:16.160Z,12.72
2022-09-05T03:42:39.029Z,12.68
2022-09-05T03:45:52.831Z,12.62
2022-09-05T03:50:37.193Z,12.64
2022-09-05T03:57:13.049Z,12.63
2022-09-05T03:57:13.435Z,12.69
2022-09-05T03:59:50.422Z,12.54
2022-09-05T04:07:16.283Z,12.49
2022-09-05T04:08:14.411Z,12.45
2022-09-05T04:09:56.948Z,12.39
2022-09-05T04:13:08.349Z,12.38
2022-09-05T04:16:18.295Z,12.44
2022-09-05T04:19:33.821Z,12.42
2022-09-05T04:22:50.210Z,12.39
2022-09-05T04:26:07.162Z,12.39
2022-09-05T04:29:43.546Z,12.36
2022-09-05T04:32:54.860Z,12.31
2022-09-05T04:36:02.191Z,12.33
2022-09-05T04:39:28.587Z,12.40
2022-09-05T04:42:30.198Z,12.45
2022-09-05T04:45:35.536Z,12.41
2022-09-05T04:49:06.961Z,12.44
2022-09-05T04:52:21.897Z,12.40
2022-09-05T04:55:39.188Z,12.38
2022-09-05T05:00:13.002Z,12.38
2022-09-05T05:06:12.914Z,12.39
2022-09-05T05:06:16.111Z,12.40
2022-09-05T05:09:47.978Z,12.40
2022-09-05T05:18:01.652Z,12.41
2022-09-05T05:18:08.287Z,12.36
2022-09-05T05:21:00.064Z,12.39
2022-09-05T05:24:11.288Z,12.40
2022-09-05T05:27:15.784Z,12.41
2022-09-05T05:30:25.288Z,12.45
2022-09-05T05:33:33.774Z,12.48
2022-09-05T05:36:37.166Z,12.45
2022-09-05T05:39:41.889Z,12.56
2022-09-05T05:42:44.557Z,12.56
2022-09-05T05:45:46.190Z,12.58
2022-09-05T05:48:55.654Z,12.63
2022-09-05T05:52:31.566Z,12.72
2022-09-05T05:55:51.733Z,12.76
2022-09-05T05:59:24.654Z,12.78
2022-09-05T06:02:37.143Z,12.84
2022-09-05T06:06:03.693Z,12.89
2022-09-05T06:13:40.352Z,12.99
2022-09-05T06:15:07.082Z,13.08
2022-09-05T06:17:08.198Z,13.17
2022-09-05T06:22:04.632Z,13.22
2022-09-05T06:24:21.194Z,13.34
2022-09-05T06:28:18.735Z,13.32
2022-09-05T06:31:42.143Z,13.46
2022-09-05T06:34:55.196Z,13.58
2022-09-05T06:38:04.709Z,13.63
2022-09-05T06:41:25.960Z,13.69
2022-09-05T06:44:33.222Z,13.76
2022-09-05T06:47:35.810Z,14.01
2022-09-05T06:51:07.079Z,14.12
2022-09-05T06:54:09.000Z,14.28
2022-09-05T06:57:44.665Z,14.35
2022-09-05T07:00:50.299Z,14.42
2022-09-05T07:05:05.224Z,14.49
2022-09-05T07:07:40.329Z,14.61
2022-09-05T07:11:04.225Z,14.73
2022-09-05T07:14:25.190Z,14.84
2022-09-05T07:17:53.566Z,15.02
2022-09-05T07:21:17.708Z,15.20
2022-09-05T07:24:37.502Z,15.36
2022-09-05T07:28:26.100Z,15.52
2022-09-05T07:31:37.393Z,15.75
2022-09-05T07:34:39.739Z,15.98
2022-09-05T07:37:42.050Z,16.18
2022-09-05T07:40:54.109Z,16.51
2022-09-05T07:43:57.729Z,16.87
2022-09-05T07:47:06.156Z,17.12
2022-09-05T07:52:19.119Z,17.19
2022-09-05T07:57:03.160Z,17.41
2022-09-05T08:00:29.329Z,18.01
2022-09-05T08:03:31.290Z,18.23
2022-09-05T08:07:25.668Z,18.56
2022-09-05T08:10:10.683Z,19.14
2022-09-05T08:13:24.788Z,19.68
2022-09-05T08:16:29.033Z,20.00
2022-09-05T08:19:36.788Z,20.33
2022-09-05T08:22:52.531Z,20.56
2022-09-05T08:26:13.826Z,20.85
2022-09-05T08:29:39.722Z,21.21
2022-09-05T08:32:49.491Z,21.36
2022-09-05T08:36:00.749Z,21.62
2022-09-05T08:39:03.702Z,21.87
2022-09-05T08:42:49.412Z,22.10
2022-09-05T08:46:44.171Z,22.38
2022-09-05T08:50:11.848Z,22.71
2022-09-05T08:53:46.454Z,22.86
2022-09-05T08:56:57.271Z,23.01
2022-09-05T09:00:19.017Z,23.38
2022-09-05T09:03:37.686Z,23.74
2022-09-05T09:07:36.805Z,23.71
2022-09-05T09:10:50.190Z,23.96
2022-09-05T09:13:55.481Z,24.44
2022-09-05T09:17:02.283Z,24.59
2022-09-05T09:20:26.719Z,24.92
2022-09-05T09:23:46.904Z,25.04
2022-09-05T09:27:00.282Z,25.43
2022-09-05T09:30:04.364Z,25.88
2022-09-05T09:33:06.230Z,25.94
2022-09-05T09:36:22.291Z,26.16
2022-09-05T09:39:39.766Z,26.34
2022-09-05T09:42:47.861Z,26.89
2022-09-05T09:46:01.295Z,27.08
2022-09-05T09:49:27.739Z,26.95
2022-09-05T09:52:40.189Z,26.63
2022-09-05T09:56:00.097Z,26.48
2022-09-05T09:59:16.436Z,26.26
2022-09-05T10:04:36.680Z,26.30
2022-09-05T10:10:48.637Z,26.67
2022-09-05T10:10:56.269Z,26.49
2022-09-05T10:14:47.608Z,26.79
2022-09-05T10:17:56.670Z,26.45
2022-09-05T10:21:17.086Z,26.78
2022-09-05T10:24:21.904Z,27.06
2022-09-05T10:27:44.582Z,27.13
2022-09-05T10:32:56.048Z,27.19
2022-09-05T10:35:17.913Z,26.91
2022-09-05T10:37:46.520Z,26.86
2022-09-05T10:41:21.340Z,26.92
2022-09-05T10:44:13.521Z,26.98
2022-09-05T10:47:33.887Z,27.10
2022-09-05T10:50:41.238Z,27.40
2022-09-05T10:53:50.373Z,27.51
2022-09-05T10:57:07.083Z,27.02
2022-09-05T11:02:24.863Z,27.06
2022-09-05T11:03:50.247Z,26.79
2022-09-05T11:06:54.144Z,26.95
2022-09-05T11:10:10.990Z,27.01
2022-09-05T11:13:46.903Z,27.31
2022-09-05T11:16:52.558Z,27.74
2022-09-05T11:20:30.304Z,28.00
2022-09-05T11:23:40.413Z,28.44
2022-09-05T11:26:52.960Z,28.08
2022-09-05T11:30:30.223Z,27.87
2022-09-05T11:39:46.111Z,27.44
2022-09-05T11:40:07.047Z,27.68
2022-09-05T11:41:34.487Z,27.93
2022-09-05T11:44:57.568Z,27.80
2022-09-05T11:48:17.479Z,28.07
2022-09-05T11:51:37.490Z,28.22
2022-09-05T11:55:21.177Z,28.43
2022-09-05T11:58:44.635Z,28.52
2022-09-05T12:02:23.404Z,28.33
2022-09-05T12:06:06.161Z,28.10
2022-09-05T12:09:45.402Z,27.82
2022-09-05T12:12:49.703Z,27.22
2022-09-05T12:16:07.428Z,27.33
2022-09-05T12:19:34.972Z,28.44
2022-09-05T12:22:37.535Z,28.77
2022-09-05T12:27:41.715Z,28.40
2022-09-05T12:29:33.601Z,29.04
2022-09-05T12:36:01.710Z,28.60
2022-09-05T12:40:48.317Z,28.19
2022-09-05T12:40:55.325Z,29.73
2022-09-05T12:43:33.485Z,29.20
2022-09-05T12:46:46.735Z,29.15
2022-09-05T12:50:03.582Z,29.52
2022-09-05T12:53:21.126Z,30.20
2022-09-05T13:01:05.192Z,30.57
2022-09-05T13:03:01.347Z,31.04
2022-09-05T13:04:15.839Z,31.62
2022-09-05T13:07:16.302Z,32.28
2022-09-05T13:14:50.516Z,31.52
2022-09-05T13:15:07.873Z,30.87
2022-09-05T13:17:16.735Z,30.71
2022-09-05T13:20:32.473Z,30.13
2022-09-05T13:23:39.862Z,30.13
2022-09-05T13:27:07.236Z,30.68
2022-09-05T13:33:11.828Z,30.90
2022-09-05T13:38:05.343Z,30.74
2022-09-05T13:38:20.786Z,31.03
2022-09-05T13:40:46.159Z,30.58
2022-09-05T13:43:47.732Z,31.18
2022-09-05T13:47:28.878Z,31.98
2022-09-05T13:50:29.323Z,29.68
2022-09-05T13:53:51.710Z,29.09
2022-09-05T13:57:01.452Z,29.94
2022-09-05T14:00:15.321Z,29.82
2022-09-05T14:03:58.355Z,29.57
2022-09-05T14:10:55.007Z,29.90
2022-09-05T14:14:13.257Z,29.12
2022-09-05T14:21:02.644Z,30.06
2022-09-05T14:24:25.965Z,30.53
2022-09-05T14:27:32.131Z,29.34
2022-09-05T14:36:20.130Z,28.17
2022-09-05T14:37:46.363Z,28.03
2022-09-05T14:38:16.410Z,27.89
2022-09-05T14:41:48.778Z,27.71
2022-09-05T14:45:37.079Z,28.08
2022-09-05T14:49:10.838Z,27.70
2022-09-05T14:52:29.261Z,27.64
2022-09-05T14:55:31.037Z,27.73
2022-09-05T15:02:41.334Z,27.97
2022-09-05T15:02:54.995Z,27.88
2022-09-05T15:05:15.956Z,27.44
2022-09-05T15:11:24.828Z,27.27
2022-09-05T15:12:21.163Z,27.30
2022-09-05T15:15:29.059Z,27.20
2022-09-05T15:18:37.130Z,27.36
2022-09-05T15:21:41.151Z,27.47
2022-09-05T15:24:42.747Z,27.88
2022-09-05T15:27:45.728Z,27.88
2022-09-05T15:31:05.044Z,27.63
2022-09-05T15:34:20.114Z,27.46
2022-09-05T15:37:29.757Z,27.61
2022-09-05T15:40:31.314Z,27.52
2022-09-05T15:43:32.831Z,27.46
2022-09-05T15:46:37.193Z,27.49
2022-09-05T15:49:42.982Z,27.32
2022-09-05T15:52:47.179Z,27.33
2022-09-05T15:56:00.987Z,27.37
2022-09-05T15:59:03.099Z,27.36
2022-09-05T16:02:09.683Z,27.40
2022-09-05T16:09:06.067Z,27.37
2022-09-05T16:10:46.155Z,27.31
2022-09-05T16:12:14.165Z,27.11
2022-09-05T16:21:02.382Z,26.88
2022-09-05T16:23:17.947Z,26.94
2022-09-05T16:23:28.096Z,26.75
2022-09-05T16:25:59.511Z,26.85
2022-09-05T16:29:12.884Z,26.69
2022-09-05T16:32:21.382Z,26.48
2022-09-05T16:35:26.540Z,26.40
2022-09-05T16:38:49.049Z,26.37
2022-09-05T16:42:10.894Z,26.33
2022-09-05T16:45:21.823Z,26.13
2022-09-05T16:49:02.637Z,25.95
2022-09-05T16:52:17.794Z,25.95
2022-09-05T16:55:32.586Z,25.90
2022-09-05T16:58:41.511Z,25.76
2022-09-05T17:02:08.762Z,25.71
2022-09-05T17:05:20.547Z,25.76
2022-09-05T17:08:28.855Z,25.55
2022-09-05T17:11:31.705Z,25.28
2022-09-05T17:14:35.323Z,25.18
2022-09-05T17:18:20.789Z,25.09
2022-09-05T17:21:10.666Z,24.85
2022-09-05T17:29:17.918Z,24.57
2022-09-05T17:29:49.643Z,24.19
2022-09-05T17:34:49.698Z,23.63
2022-09-05T17:38:12.170Z,23.36
2022-09-05T17:41:16.746Z,23.11
2022-09-05T17:44:27.608Z,23.06
2022-09-05T17:47:35.689Z,22.92
2022-09-05T17:50:51.060Z,22.78
2022-09-05T17:54:08.601Z,22.60
2022-09-05T17:57:28.126Z,22.48
2022-09-05T18:00:48.807Z,22.25
2022-09-05T18:03:50.428Z,21.97
2022-09-05T18:10:27.697Z,21.50
2022-09-05T18:13:52.906Z,21.35
2022-09-05T18:17:36.038Z,21.31
2022-09-05T18:20:24.851Z,21.30
2022-09-05T18:23:43.717Z,21.18
2022-09-05T18:26:48.898Z,21.02
2022-09-05T18:30:33.220Z,20.85
2022-09-05T18:33:56.353Z,20.78
2022-09-05T18:36:56.853Z,20.71
2022-09-05T18:40:09.527Z,20.56
2022-09-05T18:43:26.909Z,20.45
2022-09-05T18:46:31.205Z,20.13
2022-09-05T18:50:24.138Z,20.04
2022-09-05T18:53:10.365Z,20.10
2022-09-05T18:57:03.050Z,20.16
2022-09-05T19:00:09.376Z,19.85
2022-09-05T19:03:27.416Z,19.61
2022-09-05T19:06:35.751Z,19.57
2022-09-05T19:09:58.423Z,19.58
2022-09-05T19:13:03.544Z,19.48
2022-09-05T19:16:42.417Z,19.41
2022-09-05T19:20:31.607Z,19.42
2022-09-05T19:23:33.690Z,19.47
2022-09-05T19:26:35.199Z,19.33
2022-09-05T19:36:50.677Z,19.08
2022-09-05T19:37:11.974Z,18.91
2022-09-05T19:37:23.932Z,18.86
2022-09-05T19:47:29.656Z,18.71
2022-09-05T19:47:37.700Z,18.55
2022-09-05T19:47:40.432Z,18.35
2022-09-05T19:50:11.214Z,18.39
2022-09-05T19:53:15.297Z,18.39
2022-09-05T19:56:16.876Z,18.23
2022-09-05T19:59:23.003Z,18.15
2022-09-05T20:02:29.874Z,18.12
2022-09-05T20:05:31.506Z,18.00
2022-09-05T20:08:34.465Z,18.07
2022-09-05T20:11:46.014Z,17.96
2022-09-05T20:14:48.226Z,17.82
2022-09-05T20:17:53.812Z,17.82
2022-09-05T20:21:05.641Z,17.71
2022-09-05T20:24:07.182Z,17.61
2022-09-05T20:27:08.758Z,17.72
2022-09-05T20:30:15.791Z,17.73
2022-09-05T20:33:32.264Z,17.67
2022-09-05T20:43:18.357Z,17.57
2022-09-05T20:43:18.454Z,17.58
2022-09-05T20:43:50.280Z,17.68
2022-09-05T20:54:09.234Z,17.69
2022-09-05T20:54:15.418Z,17.49
2022-09-05T20:54:19.412Z,17.67
2022-09-05T20:57:17.046Z,17.35
2022-09-05T21:00:22.460Z,17.15
2022-09-05T21:03:28.194Z,17.13
2022-09-05T21:06:36.044Z,17.07
2022-09-05T21:09:56.653Z,17.05
2022-09-05T21:12:58.217Z,17.08
2022-09-05T21:15:59.810Z,17.08
2022-09-05T21:19:01.430Z,16.96
2022-09-05T21:22:04.637Z,16.92
2022-09-05T21:25:14.977Z,16.93
2022-09-05T21:28:36.351Z,16.94
2022-09-05T21:31:54.559Z,16.93
2022-09-05T21:34:58.869Z,16.73
2022-09-05T21:38:01.627Z,16.57
2022-09-05T21:41:04.034Z,16.53
2022-09-05T21:47:33.661Z,16.63
2022-09-05T21:47:39.037Z,16.55
2022-09-05T21:50:59.380Z,16.49
2022-09-05T21:59:19.003Z,16.44
2022-09-05T21:59:19.175Z,16.41
2022-09-05T22:00:54.277Z,16.27
2022-09-05T22:03:58.191Z,16.25
2022-09-05T22:06:59.700Z,16.25
2022-09-05T22:10:05.496Z,16.23
2022-09-05T22:13:07.014Z,16.20
2022-09-05T22:16:09.263Z,16.14
2022-09-05T22:19:10.782Z,16.13
2022-09-05T22:22:17.119Z,16.09
2022-09-05T22:25:27.764Z,16.18
2022-09-05T22:28:33.883Z,16.24
2022-09-05T22:31:36.226Z,16.24
2022-09-05T22:34:37.791Z,16.19
2022-09-05T22:37:39.906Z,16.24
2022-09-05T22:40:41.649Z,16.25
2022-09-05T22:43:43.230Z,16.09
2022-09-05T22:46:44.772Z,15.98
2022-09-05T22:49:46.390Z,15.96
2022-09-05T22:52:47.943Z,15.96
2022-09-05T22:56:05.747Z,15.97
2022-09-05T22:59:07.926Z,16.04
2022-09-05T23:02:09.579Z,16.07
2022-09-05T23:05:11.234Z,15.93
2022-09-05T23:08:12.743Z,15.87
2022-09-05T23:11:15.482Z,15.86
2022-09-05T23:14:16.982Z,15.91
2022-09-05T23:17:18.501Z,15.80
2022-09-05T23:20:20.062Z,15.72
2022-09-05T23:23:21.709Z,15.63
2022-09-05T23:26:23.537Z,15.56
2022-09-05T23:29:25.267Z,15.60
2022-09-05T23:32:26.767Z,15.62
2022-09-05T23:35:28.333Z,15.64
2022-09-05T23:38:29.981Z,15.62
2022-09-05T23:41:31.830Z,15.66
2022-09-05T23:44:33.359Z,15.65
2022-09-05T23:47:35.738Z,15.59
2022-09-05T23:50:37.282Z,15.59
2022-09-05T23:53:39.126Z,15.53
2022-09-05T23:56:40.656Z,15.44
2022-09-05T23:59:42.215Z,15.30
